createdAt,value
2022-08-03T00:00:28.525Z,23.08
2022-08-03T00:02:56.076Z,23.05
2022-08-03T00:05:23.270Z,23.02
2022-08-03T00:07:50.012Z,22.98
2022-08-03T00:10:17.768Z,22.94
2022-08-03T00:12:44.687Z,22.92
2022-08-03T00:15:16.699Z,22.90
2022-08-03T00:17:52.935Z,22.87
2022-08-03T00:20:25.293Z,22.83
2022-08-03T00:22:52.731Z,22.79
2022-08-03T00:25:19.693Z,22.74
2022-08-03T00:27:47.777Z,22.68
2022-08-03T00:30:17.018Z,22.63
2022-08-03T00:32:45.476Z,22.59
2022-08-03T00:35:24.134Z,22.56
2022-08-03T00:38:00.258Z,22.53
2022-08-03T00:40:28.069Z,22.50
2022-08-03T00:42:56.577Z,22.47
2022-08-03T00:45:27.478Z,22.44
2022-08-03T00:47:54.673Z,22.40
2022-08-03T00:50:23.524Z,22.35
2022-08-03T00:52:53.380Z,22.31
2022-08-03T00:55:20.840Z,22.27
2022-08-03T00:57:48.237Z,22.22
2022-08-03T01:00:19.447Z,22.18
2022-08-03T01:02:46.753Z,22.13
2022-08-03T01:05:14.169Z,22.09
2022-08-03T01:07:40.977Z,22.04
2022-08-03T01:10:32.681Z,22.00
2022-08-03T01:13:59.970Z,21.96
2022-08-03T01:16:37.644Z,21.89
2022-08-03T01:19:22.448Z,21.85
2022-08-03T01:22:07.610Z,21.80
2022-08-03T01:24:48.431Z,21.76
2022-08-03T01:27:19.367Z,21.71
2022-08-03T01:30:01.247Z,21.67
2022-08-03T01:33:01.453Z,21.61
2022-08-03T01:35:51.164Z,21.56
2022-08-03T01:38:43.327Z,21.51
2022-08-03T01:41:18.117Z,21.46
2022-08-03T01:44:27.174Z,21.43
2022-08-03T01:46:38.807Z,21.40
2022-08-03T01:49:11.773Z,21.37
2022-08-03T01:52:00.854Z,21.36
2022-08-03T01:54:31.193Z,21.33
2022-08-03T01:56:59.952Z,21.31
2022-08-03T01:59:30.787Z,21.28
2022-08-03T02:02:15.640Z,21.24
2022-08-03T02:04:49.252Z,21.21
2022-08-03T02:07:16.730Z,21.17
2022-08-03T02:09:47.443Z,21.14
2022-08-03T02:12:15.575Z,21.10
2022-08-03T02:14:46.072Z,21.04
2022-08-03T02:17:14.720Z,21.00
2022-08-03T02:19:43.968Z,20.95
2022-08-03T02:22:13.476Z,20.92
2022-08-03T02:24:40.627Z,20.88
2022-08-03T02:27:18.074Z,20.84
2022-08-03T02:29:50.298Z,20.79
2022-08-03T02:32:21.215Z,20.76
2022-08-03T02:34:52.226Z,20.72
2022-08-03T02:37:21.959Z,20.70
2022-08-03T02:39:53.517Z,20.69
2022-08-03T02:42:23.615Z,20.68
2022-08-03T02:44:53.681Z,20.67
2022-08-03T02:47:21.578Z,20.64
2022-08-03T02:49:52.373Z,20.59
2022-08-03T02:52:27.226Z,20.54
2022-08-03T02:54:57.917Z,20.51
2022-08-03T02:57:28.279Z,20.49
2022-08-03T02:59:56.784Z,20.46
2022-08-03T03:02:25.275Z,20.46
2022-08-03T03:05:52.728Z,20.46
2022-08-03T03:07:51.382Z,20.42
2022-08-03T03:10:22.702Z,20.40
2022-08-03T03:12:54.015Z,20.39
2022-08-03T03:15:21.191Z,20.38
2022-08-03T03:17:50.440Z,20.36
2022-08-03T03:20:29.544Z,20.32
2022-08-03T03:23:00.475Z,20.29
2022-08-03T03:25:29.514Z,20.24
2022-08-03T03:27:57.830Z,20.21
2022-08-03T03:30:25.461Z,20.20
2022-08-03T03:32:53.007Z,20.18
2022-08-03T03:35:19.959Z,20.14
2022-08-03T03:37:47.007Z,20.11
2022-08-03T03:40:15.151Z,20.06
2022-08-03T03:42:42.005Z,20.02
2022-08-03T03:45:09.962Z,19.98
2022-08-03T03:47:38.088Z,19.95
2022-08-03T03:50:07.009Z,19.91
2022-08-03T03:52:34.792Z,19.89
2022-08-03T03:55:01.950Z,19.86
2022-08-03T03:57:29.913Z,19.81
2022-08-03T03:59:56.736Z,19.78
2022-08-03T04:02:23.922Z,19.76
2022-08-03T04:05:09.337Z,19.74
2022-08-03T04:08:19.217Z,19.72
2022-08-03T04:11:01.449Z,19.70
2022-08-03T04:13:34.393Z,19.68
2022-08-03T04:16:02.397Z,19.67
2022-08-03T04:18:33.015Z,19.65
2022-08-03T04:21:04.690Z,19.65
2022-08-03T04:23:35.466Z,19.64
2022-08-03T04:26:05.253Z,19.64
2022-08-03T04:28:34.481Z,19.64
2022-08-03T04:31:03.704Z,19.65
2022-08-03T04:33:33.693Z,19.65
2022-08-03T04:36:07.157Z,19.64
2022-08-03T04:38:40.072Z,19.64
2022-08-03T04:41:08.211Z,19.63
2022-08-03T04:43:36.455Z,19.63
2022-08-03T04:46:04.705Z,19.63
2022-08-03T04:48:31.695Z,19.64
2022-08-03T04:51:01.572Z,19.65
2022-08-03T04:53:29.383Z,19.67
2022-08-03T04:55:56.053Z,19.69
2022-08-03T04:58:28.715Z,19.71
2022-08-03T05:00:56.071Z,19.73
2022-08-03T05:03:25.051Z,19.75
2022-08-03T05:06:01.810Z,19.76
2022-08-03T05:08:41.228Z,19.78
2022-08-03T05:11:13.676Z,19.79
2022-08-03T05:13:40.612Z,19.81
2022-08-03T05:16:07.308Z,19.82
2022-08-03T05:18:34.143Z,19.84
2022-08-03T05:21:00.962Z,19.85
2022-08-03T05:23:27.973Z,19.86
2022-08-03T05:25:54.698Z,19.86
2022-08-03T05:28:21.593Z,19.87
2022-08-03T05:30:48.525Z,19.88
2022-08-03T05:33:15.565Z,19.88
2022-08-03T05:35:56.049Z,19.89
2022-08-03T05:38:34.692Z,19.89
2022-08-03T05:41:20.940Z,19.89
2022-08-03T05:43:55.267Z,19.90
2022-08-03T05:46:23.852Z,19.90
2022-08-03T05:48:51.312Z,19.92
2022-08-03T05:51:18.295Z,19.94
2022-08-03T05:53:45.490Z,19.95
2022-08-03T05:56:15.694Z,19.98
2022-08-03T05:58:45.696Z,20.02
2022-08-03T06:01:12.682Z,20.05
2022-08-03T06:03:39.490Z,20.08
2022-08-03T06:06:06.362Z,20.11
2022-08-03T06:08:33.207Z,20.12
2022-08-03T06:11:00.142Z,20.14
2022-08-03T06:13:26.971Z,20.16
2022-08-03T06:15:53.814Z,20.19
2022-08-03T06:18:20.761Z,20.21
2022-08-03T06:20:49.287Z,20.24
2022-08-03T06:23:18.043Z,20.25
2022-08-03T06:25:46.986Z,20.27
2022-08-03T06:28:42.668Z,20.30
2022-08-03T06:31:01.972Z,20.33
2022-08-03T06:33:48.381Z,20.35
2022-08-03T06:36:16.919Z,20.38
2022-08-03T06:38:43.820Z,20.40
2022-08-03T06:41:10.548Z,20.42
2022-08-03T06:44:02.612Z,20.45
2022-08-03T06:46:26.013Z,20.48
2022-08-03T06:48:53.162Z,20.51
2022-08-03T06:51:19.967Z,20.54
2022-08-03T06:53:46.789Z,20.58
2022-08-03T06:56:13.690Z,20.62
2022-08-03T06:58:41.029Z,20.66
2022-08-03T07:01:07.861Z,20.70
2022-08-03T07:03:34.666Z,20.75
2022-08-03T07:06:02.490Z,20.80
2022-08-03T07:08:33.891Z,20.86
2022-08-03T07:11:01.884Z,20.93
2022-08-03T07:13:28.957Z,21.01
2022-08-03T07:15:56.654Z,21.09
2022-08-03T07:18:29.289Z,21.15
2022-08-03T07:20:57.872Z,21.23
2022-08-03T07:23:26.083Z,21.31
2022-08-03T07:25:53.075Z,21.41
2022-08-03T07:28:20.891Z,21.50
2022-08-03T07:30:48.235Z,21.58
2022-08-03T07:33:15.605Z,21.64
2022-08-03T07:35:42.602Z,21.72
2022-08-03T07:38:09.370Z,21.80
2022-08-03T07:40:36.089Z,21.89
2022-08-03T07:43:03.970Z,21.99
2022-08-03T07:45:34.500Z,22.07
2022-08-03T07:48:01.386Z,22.16
2022-08-03T07:50:28.370Z,22.23
2022-08-03T07:52:56.325Z,22.31
2022-08-03T07:55:25.624Z,22.39
2022-08-03T07:58:13.201Z,22.48
2022-08-03T08:00:39.996Z,22.56
2022-08-03T08:03:06.815Z,22.62
2022-08-03T08:05:34.531Z,22.67
2022-08-03T08:08:02.308Z,22.76
2022-08-03T08:10:30.296Z,22.85
2022-08-03T08:12:57.659Z,22.94
2022-08-03T08:15:24.845Z,23.00
2022-08-03T08:17:55.008Z,23.05
2022-08-03T08:20:30.552Z,23.12
2022-08-03T08:23:01.988Z,23.17
2022-08-03T08:25:32.090Z,23.24
2022-08-03T08:28:29.132Z,23.31
2022-08-03T08:30:51.036Z,23.39
2022-08-03T08:33:23.515Z,23.45
2022-08-03T08:35:54.160Z,23.51
2022-08-03T08:38:22.788Z,23.59
2022-08-03T08:40:50.923Z,23.68
2022-08-03T08:43:17.956Z,23.76
2022-08-03T08:45:45.253Z,23.82
2022-08-03T08:48:14.146Z,23.90
2022-08-03T08:50:41.710Z,23.98
2022-08-03T08:53:17.562Z,24.04
2022-08-03T08:55:58.256Z,24.11
2022-08-03T08:58:35.099Z,24.17
2022-08-03T09:01:02.708Z,24.20
2022-08-03T09:03:30.932Z,24.26
2022-08-03T09:06:01.026Z,24.31
2022-08-03T09:08:29.755Z,24.40
2022-08-03T09:10:56.663Z,24.48
2022-08-03T09:13:23.412Z,24.58
2022-08-03T09:16:19.309Z,24.69
2022-08-03T09:18:50.004Z,24.79
2022-08-03T09:21:31.637Z,24.91
2022-08-03T09:24:03.853Z,25.00
2022-08-03T09:26:34.417Z,25.05
2022-08-03T09:29:12.796Z,25.16
2022-08-03T09:31:44.939Z,25.27
2022-08-03T09:34:15.307Z,25.35
2022-08-03T09:36:51.117Z,25.43
2022-08-03T09:39:18.713Z,25.51
2022-08-03T09:41:48.428Z,25.58
2022-08-03T09:44:25.449Z,25.63
2022-08-03T09:46:58.724Z,25.67
2022-08-03T09:49:25.734Z,25.69
2022-08-03T09:52:33.116Z,25.75
2022-08-03T09:54:43.360Z,25.84
2022-08-03T09:57:25.157Z,25.91
2022-08-03T10:00:01.874Z,25.99
2022-08-03T10:02:32.674Z,26.03
2022-08-03T10:04:59.546Z,26.08
2022-08-03T10:07:26.382Z,26.12
2022-08-03T10:10:29.091Z,26.14
2022-08-03T10:12:49.465Z,26.23
2022-08-03T10:16:21.969Z,26.32
2022-08-03T10:18:03.072Z,26.37
2022-08-03T10:20:30.422Z,26.38
2022-08-03T10:22:58.602Z,26.42
2022-08-03T10:25:32.960Z,26.45
2022-08-03T10:28:08.267Z,26.51
2022-08-03T10:30:36.849Z,26.57
2022-08-03T10:33:49.183Z,26.63
2022-08-03T10:36:02.276Z,26.63
2022-08-03T10:38:49.770Z,26.64
2022-08-03T10:41:19.810Z,26.73
2022-08-03T10:43:53.235Z,26.76
2022-08-03T10:46:21.810Z,26.78
2022-08-03T10:48:52.657Z,26.77
2022-08-03T10:51:20.785Z,26.80
2022-08-03T10:53:54.692Z,26.87
2022-08-03T10:56:54.635Z,27.00
2022-08-03T10:59:46.462Z,27.13
2022-08-03T11:02:14.873Z,27.23
2022-08-03T11:04:45.396Z,27.34
2022-08-03T11:07:22.515Z,27.42
2022-08-03T11:09:50.842Z,27.48
2022-08-03T11:12:31.777Z,27.48
2022-08-03T11:15:04.542Z,27.45
2022-08-03T11:17:55.327Z,27.47
2022-08-03T11:20:53.526Z,27.60
2022-08-03T11:24:02.744Z,27.75
2022-08-03T11:26:34.352Z,27.85
2022-08-03T11:29:30.508Z,27.97
2022-08-03T11:31:57.760Z,28.07
2022-08-03T11:34:24.934Z,28.20
2022-08-03T11:37:22.340Z,28.31
2022-08-03T11:39:53.191Z,28.42
2022-08-03T11:42:23.333Z,28.50
2022-08-03T11:44:57.126Z,28.58
2022-08-03T11:47:27.364Z,28.69
2022-08-03T11:50:02.337Z,28.78
2022-08-03T11:52:36.459Z,28.80
2022-08-03T11:55:09.579Z,28.80
2022-08-03T11:59:01.178Z,28.84
2022-08-03T12:00:33.252Z,28.91
2022-08-03T12:03:09.419Z,29.00
2022-08-03T12:05:41.483Z,29.09
2022-08-03T12:08:10.744Z,29.14
2022-08-03T12:10:40.515Z,29.22
2022-08-03T12:13:56.596Z,29.29
2022-08-03T12:15:59.587Z,29.32
2022-08-03T12:18:26.584Z,29.34
2022-08-03T12:21:03.273Z,29.37
2022-08-03T12:23:30.480Z,29.39
2022-08-03T12:26:06.463Z,29.45
2022-08-03T12:28:37.414Z,29.51
2022-08-03T12:31:12.781Z,29.57
2022-08-03T12:34:04.420Z,29.64
2022-08-03T12:36:35.562Z,29.69
2022-08-03T12:39:09.469Z,29.75
2022-08-03T12:41:39.243Z,29.75
2022-08-03T12:44:08.205Z,29.75
2022-08-03T12:46:46.931Z,29.77
2022-08-03T12:49:19.753Z,29.80
2022-08-03T12:51:46.575Z,29.84
2022-08-03T12:54:24.346Z,29.85
2022-08-03T12:57:10.540Z,29.89
2022-08-03T12:59:49.850Z,29.96
2022-08-03T13:02:23.713Z,30.03
2022-08-03T13:04:52.513Z,30.13
2022-08-03T13:07:21.633Z,30.20
2022-08-03T13:09:55.736Z,30.26
2022-08-03T13:12:28.760Z,30.29
2022-08-03T13:14:57.771Z,30.36
2022-08-03T13:17:26.050Z,30.40
2022-08-03T13:19:53.868Z,30.42
2022-08-03T13:22:25.511Z,30.46
2022-08-03T13:24:56.165Z,30.46
2022-08-03T13:28:12.297Z,30.46
2022-08-03T13:30:11.485Z,30.49
2022-08-03T13:32:38.984Z,30.53
2022-08-03T13:35:08.264Z,30.57
2022-08-03T13:37:35.800Z,30.60
2022-08-03T13:40:05.728Z,30.61
2022-08-03T13:42:34.893Z,30.64
2022-08-03T13:45:03.769Z,30.69
2022-08-03T13:47:30.590Z,30.74
2022-08-03T13:50:01.226Z,30.80
2022-08-03T13:52:37.083Z,30.84
2022-08-03T13:55:24.157Z,30.85
2022-08-03T13:58:06.537Z,30.89
2022-08-03T14:00:35.054Z,30.84
2022-08-03T14:03:13.169Z,30.73
2022-08-03T14:05:42.368Z,30.65
2022-08-03T14:08:13.610Z,30.58
2022-08-03T14:10:44.532Z,30.58
2022-08-03T14:13:16.636Z,30.62
2022-08-03T14:15:50.860Z,30.66
2022-08-03T14:18:29.152Z,30.71
2022-08-03T14:21:06.396Z,30.76
2022-08-03T14:23:35.912Z,30.79
2022-08-03T14:26:03.264Z,30.82
2022-08-03T14:28:30.126Z,30.85
2022-08-03T14:30:57.035Z,30.89
2022-08-03T14:33:24.658Z,30.95
2022-08-03T14:35:52.604Z,31.01
2022-08-03T14:38:23.421Z,31.04
2022-08-03T14:40:51.360Z,31.05
2022-08-03T14:43:18.712Z,31.04
2022-08-03T14:45:45.567Z,31.02
2022-08-03T14:50:34.124Z,31.02
2022-08-03T14:50:59.867Z,31.06
2022-08-03T14:53:26.781Z,31.10
2022-08-03T14:55:54.346Z,31.14
2022-08-03T14:58:22.900Z,31.16
2022-08-03T15:00:51.366Z,31.14
2022-08-03T15:03:25.826Z,31.11
2022-08-03T15:05:55.085Z,31.10
2022-08-03T15:08:24.203Z,31.09
2022-08-03T15:10:51.881Z,31.06
2022-08-03T15:13:20.263Z,31.06
2022-08-03T15:15:48.103Z,31.08
2022-08-03T15:18:14.876Z,31.10
2022-08-03T15:20:46.358Z,31.13
2022-08-03T15:23:15.678Z,31.16
2022-08-03T15:26:28.055Z,31.17
2022-08-03T15:28:31.535Z,31.21
2022-08-03T15:30:58.364Z,31.23
2022-08-03T15:33:25.276Z,31.27
2022-08-03T15:35:53.551Z,31.31
2022-08-03T15:38:26.073Z,31.33
2022-08-03T15:40:54.807Z,31.37
2022-08-03T15:43:23.173Z,31.37
2022-08-03T15:46:19.056Z,31.37
2022-08-03T15:48:36.918Z,31.40
2022-08-03T15:51:05.408Z,31.41
2022-08-03T15:53:33.900Z,31.40
2022-08-03T15:56:04.203Z,31.40
2022-08-03T15:59:09.822Z,31.37
2022-08-03T16:01:30.215Z,31.36
2022-08-03T16:03:57.002Z,31.35
2022-08-03T16:06:34.870Z,31.33
2022-08-03T16:09:05.024Z,31.28
2022-08-03T16:11:32.035Z,31.25
2022-08-03T16:14:13.119Z,31.21
2022-08-03T16:16:51.143Z,31.21
2022-08-03T16:19:17.902Z,31.21
2022-08-03T16:21:48.882Z,31.20
2022-08-03T16:24:26.829Z,31.18
2022-08-03T16:26:55.950Z,31.16
2022-08-03T16:29:23.786Z,31.14
2022-08-03T16:31:58.189Z,31.15
2022-08-03T16:34:39.607Z,31.18
2022-08-03T16:37:22.455Z,31.18
2022-08-03T16:39:54.121Z,31.20
2022-08-03T16:42:21.066Z,31.19
2022-08-03T16:44:48.152Z,31.13
2022-08-03T16:47:22.308Z,31.10
2022-08-03T16:49:53.007Z,31.07
2022-08-03T16:52:22.890Z,31.02
2022-08-03T16:54:52.779Z,30.99
2022-08-03T16:57:56.700Z,30.95
2022-08-03T17:00:33.701Z,30.89
2022-08-03T17:03:42.660Z,30.83
2022-08-03T17:06:34.530Z,30.74
2022-08-03T17:09:03.180Z,30.70
2022-08-03T17:11:32.901Z,30.66
2022-08-03T17:14:01.127Z,30.63
2022-08-03T17:16:30.366Z,30.60
2022-08-03T17:19:02.037Z,30.57
2022-08-03T17:21:34.956Z,30.54
2022-08-03T17:24:27.959Z,30.50
2022-08-03T17:26:58.385Z,30.48
2022-08-03T17:29:29.927Z,30.45
2022-08-03T17:31:56.790Z,30.43
2022-08-03T17:34:26.234Z,30.39
2022-08-03T17:37:27.030Z,30.37
2022-08-03T17:40:03.885Z,30.32
2022-08-03T17:42:33.203Z,30.26
2022-08-03T17:45:03.913Z,30.22
2022-08-03T17:47:41.215Z,30.18
2022-08-03T17:50:24.875Z,30.15
2022-08-03T17:53:07.820Z,30.11
2022-08-03T17:55:56.440Z,30.05
2022-08-03T17:58:55.556Z,30.00
2022-08-03T18:01:59.499Z,29.97
2022-08-03T18:04:41.304Z,29.91
2022-08-03T18:07:12.652Z,29.88
2022-08-03T18:10:04.538Z,29.86
2022-08-03T18:12:42.258Z,29.83
2022-08-03T18:15:22.004Z,29.77
2022-08-03T18:17:55.603Z,29.73
2022-08-03T18:20:34.369Z,29.69
2022-08-03T18:23:05.825Z,29.66
2022-08-03T18:25:45.431Z,29.62
2022-08-03T18:28:23.237Z,29.58
2022-08-03T18:30:53.964Z,29.54
2022-08-03T18:34:16.367Z,29.52
2022-08-03T18:36:29.426Z,29.47
2022-08-03T18:38:59.232Z,29.45
2022-08-03T18:41:33.428Z,29.42
2022-08-03T18:44:07.923Z,29.38
2022-08-03T18:46:49.577Z,29.33
2022-08-03T18:50:10.854Z,29.30
2022-08-03T18:52:53.194Z,29.22
2022-08-03T18:55:33.644Z,29.18
2022-08-03T18:58:17.570Z,29.14
2022-08-03T19:01:15.447Z,29.09
2022-08-03T19:04:26.461Z,29.04
2022-08-03T19:07:08.069Z,29.01
2022-08-03T19:09:52.619Z,28.98
2022-08-03T19:12:44.671Z,28.94
2022-08-03T19:15:15.778Z,28.89
2022-08-03T19:17:52.884Z,28.84
2022-08-03T19:20:30.960Z,28.79
2022-08-03T19:23:00.408Z,28.73
2022-08-03T19:25:34.949Z,28.68
2022-08-03T19:28:17.182Z,28.61
2022-08-03T19:30:53.381Z,28.55
2022-08-03T19:33:21.363Z,28.49
2022-08-03T19:35:54.638Z,28.43
2022-08-03T19:38:29.114Z,28.38
2022-08-03T19:41:03.693Z,28.35
2022-08-03T19:43:53.229Z,28.33
2022-08-03T19:46:23.064Z,28.29
2022-08-03T19:49:14.613Z,28.28
2022-08-03T19:51:58.893Z,28.23
2022-08-03T19:54:52.779Z,28.20
2022-08-03T19:57:24.879Z,28.17
2022-08-03T19:59:53.585Z,28.12
2022-08-03T20:02:26.579Z,28.07
2022-08-03T20:04:59.749Z,28.05
2022-08-03T20:07:30.814Z,28.02
2022-08-03T20:10:01.411Z,27.98
2022-08-03T20:12:33.199Z,27.93
2022-08-03T20:15:06.485Z,27.90
2022-08-03T20:17:55.902Z,27.87
2022-08-03T20:20:36.131Z,27.84
2022-08-03T20:23:23.101Z,27.79
2022-08-03T20:25:58.806Z,27.73
2022-08-03T20:28:32.881Z,27.68
2022-08-03T20:31:00.162Z,27.61
2022-08-03T20:33:46.669Z,27.57
2022-08-03T20:36:18.266Z,27.53
2022-08-03T20:38:47.869Z,27.48
2022-08-03T20:41:17.047Z,27.42
2022-08-03T20:43:44.556Z,27.37
2022-08-03T20:46:29.102Z,27.32
2022-08-03T20:51:49.698Z,27.22
2022-08-03T20:54:30.573Z,27.17
2022-08-03T20:57:04.099Z,27.12
2022-08-03T20:59:47.004Z,27.05
2022-08-03T21:02:30.557Z,26.98
2022-08-03T21:05:03.612Z,26.91
2022-08-03T21:08:05.288Z,26.84
2022-08-03T21:10:37.911Z,26.79
2022-08-03T21:13:13.534Z,27.27
2022-08-03T21:16:11.708Z,26.72
2022-08-03T21:18:51.011Z,26.67
2022-08-03T21:21:20.922Z,26.62
2022-08-03T21:23:55.024Z,26.55
2022-08-03T21:26:24.987Z,26.50
2022-08-03T21:28:54.475Z,26.45
2022-08-03T21:31:25.667Z,26.40
2022-08-03T21:34:05.841Z,26.35
2022-08-03T21:36:36.199Z,26.30
2022-08-03T21:39:06.933Z,26.26
2022-08-03T21:41:33.784Z,26.20
2022-08-03T21:44:01.802Z,26.12
2022-08-03T21:46:35.297Z,26.07
2022-08-03T21:50:04.835Z,26.04
2022-08-03T21:51:56.377Z,26.02
2022-08-03T21:54:27.441Z,25.97
2022-08-03T21:56:55.468Z,25.93
2022-08-03T21:59:23.632Z,25.89
2022-08-03T22:01:55.245Z,25.86
2022-08-03T22:04:50.222Z,25.80
2022-08-03T22:07:13.817Z,25.73
2022-08-03T22:09:40.984Z,25.69
2022-08-03T22:12:30.630Z,25.64
2022-08-03T22:15:01.088Z,25.58
2022-08-03T22:17:55.146Z,25.53
2022-08-03T22:20:21.514Z,25.47
2022-08-03T22:22:54.947Z,25.45
2022-08-03T22:25:29.095Z,25.42
2022-08-03T22:27:59.991Z,25.40
2022-08-03T22:30:27.221Z,25.39
2022-08-03T22:32:56.532Z,25.38
2022-08-03T22:35:26.144Z,25.34
2022-08-03T22:37:58.530Z,25.32
2022-08-03T22:40:27.320Z,25.29
2022-08-03T22:42:55.115Z,25.26
2022-08-03T22:46:08.520Z,25.22
2022-08-03T22:48:08.800Z,25.17
2022-08-03T22:50:35.764Z,25.14
2022-08-03T22:53:03.439Z,25.11
2022-08-03T22:55:31.416Z,25.07
2022-08-03T22:57:58.251Z,25.05
2022-08-03T23:00:25.126Z,25.02
2022-08-03T23:02:55.047Z,24.98
2022-08-03T23:06:00.304Z,24.95
2022-08-03T23:08:24.299Z,24.94
2022-08-03T23:10:52.937Z,24.92
2022-08-03T23:13:24.174Z,24.89
2022-08-03T23:15:59.572Z,24.86
2022-08-03T23:18:34.097Z,24.84
2022-08-03T23:21:10.959Z,24.82
2022-08-03T23:23:44.145Z,24.80
2022-08-03T23:26:12.898Z,24.79
2022-08-03T23:28:41.204Z,24.78
2022-08-03T23:31:08.812Z,24.76
2022-08-03T23:33:40.182Z,24.76
2022-08-03T23:36:17.370Z,24.75
2022-08-03T23:38:55.123Z,24.70
2022-08-03T23:41:22.258Z,24.64
2022-08-03T23:43:51.687Z,24.59
2022-08-03T23:46:23.081Z,24.55
2022-08-03T23:48:50.956Z,24.51
2022-08-03T23:51:34.352Z,24.48
2022-08-03T23:54:09.498Z,24.45
2022-08-03T23:56:46.147Z,24.39
2022-08-03T23:59:18.804Z,24.34
